Airport View

Enter AWOS ICAO identifier for current METAR.

ex. KFNL

KALM 221805Z AUTO 29007KT 030V040 10SM CLR 32/09 A3023 RMK AO2

22 Jul 2019 18:08

Frequency: 127.825

Phone: 575-439-4112

Other Area AWOS: KHMN - KSRR - KLRU - KBIF

TAF KHMN 221707Z 2217/2323 15009KT 9999 SCT070 QNH3019INS BECMG 2219/2220 VRB12G20KT 9999 VCTS SCT070 BKN100CB QNH3014INS TEMPO 2220/2301 VRB25G35KT 8000 -TSRA BKN070CB BKN100 BECMG 2300/2301 12009KT 9000 -SHRA FEW070 SCT100 QNH3015INS BECMG 2306/2307 17012KT 9999 NSW SCT030 BKN070 QNH3024INS BECMG 2318/2319 16009KT 9999 SCT040 BKN060 QNH3022INS TS OMTNS E BECMG 2321/2322 VRB15G25KT 8000 -TSRA FEW030 BKN060CB BKN100 QNH3019INS TX35/2221Z TN25/2312Z